Reno, NV (89501)

5:06 PM PST on December 24, 2014 (GMT -0800)
UNR Campus, LMR Roof | Change Station
CLOSE
Current Station
Personal Weather Station
Location: Reno, NV
Elevation: 4570 ft
Nearby Weather Stations
Active Advisory: Winter Weather Advisory Active Notice: Record Report

Elev 4570 ft 39.54 °N, 119.81 °W | Updated 1 minute ago

Light Snow
Light Snow Mist
35.3 °F
Feels Like 26 °F
N
15.0
Wind Variable Wind from West
Gusts 36.0 mph

Today
High -- | Low -- °F
--% Chance of Precip.
Yesterday
High -- | Low -- °F
Precip. -- in
7:17 AM 4:40 PM
Waxing Crescent, 12% visible
Pressure 29.75 in
Visibility 4.0 miles
Clouds Few 1500 ft
Overcast 3000 ft
Windchill 26 °F
Dew Point 30 °F
Humidity 81%
Rainfall 0.07 in
Snow Depth Not available.
UV 0 out of 12
Pollen 2.70 out of 12
Air Quality Not available.
Flu Activity Not available.
METAR KRNO 250055Z 33022G31KT 4SM -SN BR FEW015 OVC030 03/02 A2974 RMK AO2 PK WND 29031/0021 RAE54SNB54 PRESRR SLP073 P0002 T00330022

More Conditions Fewer Conditions

Pressure 29.75 in
Visibility 4.0 miles
Clouds Few 1500 ft
Overcast 3000 ft
Windchill 26 °F
Dew Point 30 °F
Humidity 81%
Rainfall 0.07 in
Snow Depth Not available.
UV 0 out of 12
Pollen 2.70 out of 12
Air Quality Not available.
Flu Activity Not available.
METAR KRNO 250055Z 33022G31KT 4SM -SN BR FEW015 OVC030 03/02 A2974 RMK AO2 PK WND 29031/0021 RAE54SNB54 PRESRR SLP073 P0002 T00330022

More Conditions Fewer Conditions

10-Day Weather Forecast

Almanac

Astronomy

Dec. 24, 2014 Rise Set
Actual Time
Civil Twilight
Nautical Twilight
Astronomical Twilight
Moon
Length of Visible Light
Length of Day
Tomorrow will be .
, % of the Moon is Illuminated

Today's Extremes

State Highs State Lows

Community

WunderPhotos

Upload Photos

1,780,199 photos uploaded!

WunderBlogs® & News

Nearby

Air Quality

  Air Quality AQ Index Pollutant
Not available.

Snow Depth

Station Depth Elevation

Earthquake Activity

City Distance Mag. Time & Date
Minimum magnitude displayed is 2.5.

Coastal Water Temperatures

Place Temperature

Nearby Weather Stations